createdAt,value
2022-10-04T00:00:03.921Z,93
2022-10-04T00:16:04.150Z,93
2022-10-04T00:31:01.338Z,93
2022-10-04T00:46:03.440Z,93
2022-10-04T01:00:00.556Z,93
2022-10-04T01:16:03.177Z,93
2022-10-04T01:31:00.154Z,93
2022-10-04T01:46:02.426Z,93
2022-10-04T02:00:04.413Z,93
2022-10-04T02:16:01.718Z,93
2022-10-04T02:31:03.979Z,93
2022-10-04T02:46:01.094Z,92
2022-10-04T03:00:03.015Z,92
2022-10-04T03:16:00.391Z,92
2022-10-04T03:31:02.872Z,92
2022-10-04T03:46:04.746Z,92
2022-10-04T04:00:01.494Z,92
2022-10-04T04:16:04.042Z,92
2022-10-04T04:31:01.198Z,92
2022-10-04T04:46:26.051Z,92
2022-10-04T05:00:00.223Z,92
2022-10-04T05:16:02.728Z,92
2022-10-04T05:30:59.971Z,92
2022-10-04T05:46:02.231Z,92
2022-10-04T06:00:04.872Z,92
2022-10-04T06:16:01.802Z,92
2022-10-04T06:31:04.398Z,92
2022-10-04T06:46:01.945Z,92
2022-10-04T07:00:03.005Z,90
2022-10-04T07:16:00.482Z,87
2022-10-04T07:31:02.809Z,87
2022-10-04T07:45:59.984Z,86
2022-10-04T08:00:02.179Z,84
2022-10-04T08:16:04.718Z,84
2022-10-04T08:31:01.837Z,83
2022-10-04T08:46:04.019Z,79
2022-10-04T09:00:01.133Z,79
2022-10-04T09:16:15.790Z,77
2022-10-04T09:31:00.904Z,73
2022-10-04T09:46:05.329Z,69
2022-10-04T10:00:04.745Z,70
2022-10-04T10:16:01.472Z,70
2022-10-04T10:31:02.795Z,65
2022-10-04T10:46:04.225Z,66
2022-10-04T11:00:02.672Z,68
2022-10-04T11:16:02.292Z,62
2022-10-04T11:31:04.622Z,61
2022-10-04T11:46:01.809Z,61
2022-10-04T12:00:03.635Z,60
2022-10-04T12:16:01.098Z,59
2022-10-04T12:31:03.314Z,58
2022-10-04T12:46:00.771Z,54
2022-10-04T13:00:02.708Z,56
2022-10-04T13:31:02.293Z,57
2022-10-04T13:46:04.467Z,58
2022-10-04T14:00:01.345Z,59
2022-10-04T14:16:03.934Z,58
2022-10-04T14:31:00.952Z,59
2022-10-04T14:46:03.346Z,59
2022-10-04T15:00:00.462Z,57
2022-10-04T15:16:02.717Z,60
2022-10-04T15:31:00.066Z,60
2022-10-04T15:46:03.598Z,60
2022-10-04T16:00:04.303Z,62
2022-10-04T16:16:01.686Z,67
2022-10-04T16:31:03.962Z,70
2022-10-04T16:46:00.999Z,73
2022-10-04T17:00:03.202Z,75
2022-10-04T17:16:00.611Z,78
2022-10-04T17:31:02.966Z,81
2022-10-04T17:46:00.372Z,83
2022-10-04T18:00:02.540Z,84
2022-10-04T18:15:59.769Z,85
2022-10-04T18:31:02.158Z,87
2022-10-04T18:46:04.185Z,87
2022-10-04T19:00:00.940Z,88
2022-10-04T19:16:03.460Z,89
2022-10-04T19:31:01.009Z,90
2022-10-04T19:46:03.170Z,91
2022-10-04T20:00:01.417Z,91
2022-10-04T20:16:02.956Z,91
2022-10-04T20:31:00.141Z,91
2022-10-04T20:46:02.370Z,92
2022-10-04T21:00:04.316Z,92
2022-10-04T21:16:01.615Z,92
2022-10-04T21:31:03.699Z,92
2022-10-04T21:46:00.967Z,92
2022-10-04T22:00:03.119Z,92
2022-10-04T22:16:00.550Z,93
2022-10-04T22:31:03.006Z,93
2022-10-04T22:46:00.291Z,93
2022-10-04T23:00:02.198Z,93
2022-10-04T23:16:04.664Z,93
2022-10-04T23:31:01.786Z,94
2022-10-04T23:46:04.280Z,94
